METAR Formatted Surface Weather Observation
Issued by NWS

Home | Current Version | Previous Version | Text Only | Print | Product List | Glossary On
Versions: 1 2 3 4 5 6 7 8
000
SAUS46 KSEW 141759
MTRSMP
METAR KSMP 141756Z AUTO VRB04KT 10SM CLR 16/01 A3006 RMK AO2 SLP162
T01610011 10161 20067 50002 $



USA.gov is the U.S. government's official web portal to all federal, state and local government web resources and services.